Ardmore, Oklahoma
Current Conditions -  °F | °C
As of 10:15 AM on Thursday 30 Oct 2014 (Local Time) from K1F0 Reporting Station
Scattered Clouds Scattered Clouds  
Wind Chill: 16°   Ceiling: Unl
Heat Index: 16°   Visibility: NA
Dew Point:   Wind: 6mph
Humidity: 59%   Direction: 220°SW
Pressure: 30.16"   Gusts: NA
Location:  34.17°N, 97.13°W
Report Text: K1F0 301515Z AUTO 22005KT SCT090 16/08 A3016 RMK AO2 PWINO
Loading
Personal Weather Stations






























Interactive Weather Map
Tropical Storm Tracking
New forecast layout! Learn more

10-Day Weather Forecast

Advertisements
Track Severe Weather on mobile